Time;durP1;ratioP1;P1;durP2;ratioP2;P2;SDS_P1;SDS_P2;PMS_P1;PMS_P2;Temp;Humidity;BMP_temperature;BMP_pressure;BME280_temperature;BME280_humidity;BME280_pressure;Samples;Min_cycle;Max_cycle;Signal;HPM_P1;HPM_P2
2021/08/02 00:01:27;;;;;;;;;;;28.80;46.30;;;;;;4957408;28;87931;-46
2021/08/02 00:04:06;;;;;;;;;;;28.80;46.30;;;;;;5007565;28;87854;-45
2021/08/02 00:06:38;;;;;;;;;;;28.80;46.30;;;;;;5021266;28;86585;-45
2021/08/02 00:09:06;;;;;;;;;;;28.80;46.30;;;;;;5018379;28;87176;-48
2021/08/02 00:11:38;;;;;;;;;;;28.80;46.30;;;;;;5021679;28;87562;-46
2021/08/02 00:14:04;;;;;;;;;;;28.70;46.30;;;;;;5024347;28;88101;-47
2021/08/02 00:16:30;;;;;;;;;;;28.80;46.30;;;;;;5021641;28;88546;-47
2021/08/02 00:18:55;;;;;;;;;;;28.70;46.30;;;;;;5021982;28;87254;-46
2021/08/02 00:21:21;;;;;;;;;;;28.70;46.50;;;;;;5022686;28;87182;-46
2021/08/02 00:23:46;;;;;;;;;;;28.70;46.40;;;;;;5019286;28;87774;-46
2021/08/02 00:26:12;;;;;;;;;;;28.70;46.40;;;;;;5018363;28;87173;-46
2021/08/02 00:28:38;;;;;;;;;;;28.70;46.40;;;;;;5019337;28;87540;-47
2021/08/02 00:31:05;;;;;;;;;;;28.60;46.50;;;;;;5019605;28;86924;-47
2021/08/02 00:33:31;;;;;;;;;;;28.60;46.30;;;;;;5018999;28;87100;-47
2021/08/02 00:36:03;;;;;;;;;;;28.60;46.40;;;;;;5022531;28;87630;-46
2021/08/02 00:38:31;;;;;;;;;;;28.60;46.50;;;;;;5016949;28;89894;-46
2021/08/02 00:41:00;;;;;;;;;;;28.60;46.40;;;;;;5021865;28;87117;-51
2021/08/02 00:43:44;;;;;;;;;;;28.60;46.40;;;;;;5018052;28;89275;-47
2021/08/02 00:46:11;;;;;;;;;;;28.50;46.30;;;;;;5019981;28;87148;-46
2021/08/02 00:48:48;;;;;;;;;;;28.50;46.60;;;;;;5018132;28;87153;-47
2021/08/02 00:51:14;;;;;;;;;;;28.50;46.40;;;;;;5019188;28;89901;-45
2021/08/02 00:53:40;;;;;;;;;;;28.50;46.40;;;;;;5022361;28;87162;-48
2021/08/02 00:56:06;;;;;;;;;;;28.40;46.60;;;;;;5024736;28;88375;-51
2021/08/02 00:58:32;;;;;;;;;;;28.40;46.20;;;;;;5021045;28;88865;-46
2021/08/02 01:00:58;;;;;;;;;;;28.40;46.40;;;;;;5020373;28;88503;-46
2021/08/02 01:03:24;;;;;;;;;;;28.40;46.30;;;;;;5018379;28;88963;-48
2021/08/02 01:05:51;;;;;;;;;;;28.40;46.40;;;;;;5017751;28;87143;-46
2021/08/02 01:08:25;;;;;;;;;;;28.40;46.50;;;;;;5019536;28;88002;-47
2021/08/02 01:10:53;;;;;;;;;;;28.40;46.50;;;;;;5019366;28;89636;-46
2021/08/02 01:13:21;;;;;;;;;;;28.40;46.40;;;;;;5021581;28;87175;-50
2021/08/02 01:15:47;;;;;;;;;;;28.40;46.50;;;;;;5018413;28;87162;-49
2021/08/02 01:18:13;;;;;;;;;;;28.30;46.40;;;;;;5019503;28;88137;-51
2021/08/02 01:20:45;;;;;;;;;;;28.30;46.40;;;;;;5017457;28;89861;-46
2021/08/02 01:23:11;;;;;;;;;;;28.30;46.30;;;;;;5017456;28;88074;-46
2021/08/02 01:25:37;;;;;;;;;;;28.30;46.40;;;;;;5016850;28;87098;-50
2021/08/02 01:28:14;;;;;;;;;;;28.30;46.30;;;;;;5017365;28;88208;-46
2021/08/02 01:30:46;;;;;;;;;;;28.30;46.40;;;;;;5016875;28;89391;-46
2021/08/02 01:33:12;;;;;;;;;;;28.20;46.30;;;;;;5017929;28;87665;-48
2021/08/02 01:35:38;;;;;;;;;;;28.20;46.40;;;;;;5016409;28;87254;-47
2021/08/02 01:38:04;;;;;;;;;;;28.20;47.10;;;;;;5019718;28;88598;-46
2021/08/02 01:40:30;;;;;;;;;;;28.20;46.30;;;;;;5019549;28;89082;-49
2021/08/02 01:43:06;;;;;;;;;;;28.10;46.50;;;;;;5016399;28;87938;-47
2021/08/02 01:45:38;;;;;;;;;;;28.20;46.40;;;;;;5017455;28;86385;-46
2021/08/02 01:48:09;;;;;;;;;;;28.10;46.30;;;;;;5017080;28;87208;-47
2021/08/02 01:50:53;;;;;;;;;;;28.10;46.50;;;;;;5017408;28;88001;-49
2021/08/02 01:53:28;;;;;;;;;;;28.10;46.50;;;;;;5019978;28;88142;-47
2021/08/02 01:56:22;;;;;;;;;;;28.10;46.40;;;;;;5016318;28;88233;-48
2021/08/02 01:59:08;;;;;;;;;;;28.10;46.60;;;;;;5004096;28;89512;-48
2021/08/02 02:01:57;;;;;;;;;;;28.00;46.60;;;;;;5018636;28;87142;-47
2021/08/02 02:04:27;;;;;;;;;;;28.00;46.40;;;;;;5010663;28;88822;-48
2021/08/02 02:06:55;;;;;;;;;;;28.00;46.50;;;;;;5018823;28;87230;-49
2021/08/02 02:09:20;;;;;;;;;;;28.00;46.60;;;;;;5016864;28;87189;-51
2021/08/02 02:11:48;;;;;;;;;;;28.00;46.80;;;;;;5018136;28;86715;-45
2021/08/02 02:14:14;;;;;;;;;;;27.90;46.50;;;;;;5017376;28;88758;-46
2021/08/02 02:16:43;;;;;;;;;;;27.90;46.70;;;;;;5017696;28;88549;-45
2021/08/02 02:19:09;;;;;;;;;;;27.90;46.70;;;;;;5017737;28;89128;-47
2021/08/02 02:21:35;;;;;;;;;;;27.90;46.60;;;;;;5018185;28;87185;-47
2021/08/02 02:24:01;;;;;;;;;;;27.90;46.60;;;;;;5020372;28;87132;-46
2021/08/02 02:26:29;;;;;;;;;;;27.90;46.70;;;;;;5021137;28;89782;-46
2021/08/02 02:28:55;;;;;;;;;;;27.90;46.60;;;;;;5019034;28;88934;-48
2021/08/02 02:31:23;;;;;;;;;;;27.80;46.60;;;;;;5019038;28;89153;-45
2021/08/02 02:33:49;;;;;;;;;;;27.80;46.80;;;;;;5019783;28;87261;-51
2021/08/02 02:36:15;;;;;;;;;;;27.80;46.90;;;;;;5020277;28;88543;-48
2021/08/02 02:38:41;;;;;;;;;;;27.70;46.40;;;;;;5019286;28;89904;-45
2021/08/02 02:41:06;;;;;;;;;;;27.80;46.60;;;;;;5020438;28;87142;-52
2021/08/02 02:43:32;;;;;;;;;;;27.70;46.70;;;;;;5017849;28;88999;-46
2021/08/02 02:45:58;;;;;;;;;;;27.70;46.70;;;;;;5015527;28;88025;-47
2021/08/02 02:48:23;;;;;;;;;;;27.80;46.80;;;;;;5019550;28;87135;-46
2021/08/02 02:50:50;;;;;;;;;;;27.70;46.50;;;;;;5017046;28;89073;-46
2021/08/02 02:53:16;;;;;;;;;;;27.70;46.70;;;;;;5017057;28;87146;-48
2021/08/02 02:55:43;;;;;;;;;;;27.70;46.80;;;;;;5015407;28;88479;-48
2021/08/02 02:58:09;;;;;;;;;;;27.70;46.80;;;;;;5018922;28;88218;-46
2021/08/02 03:00:35;;;;;;;;;;;27.70;46.70;;;;;;5020464;28;86950;-46
2021/08/02 03:03:01;;;;;;;;;;;27.70;47.00;;;;;;5020091;28;87180;-51
2021/08/02 03:05:28;;;;;;;;;;;27.60;46.70;;;;;;5018204;28;87136;-46
2021/08/02 03:07:56;;;;;;;;;;;27.60;46.60;;;;;;5020710;28;88192;-51
2021/08/02 03:10:22;;;;;;;;;;;27.60;47.10;;;;;;5015999;28;87880;-46
2021/08/02 03:12:49;;;;;;;;;;;27.60;46.90;;;;;;5015791;28;87126;-47
2021/08/02 03:15:15;;;;;;;;;;;27.60;47.00;;;;;;5016627;28;88881;-45
2021/08/02 03:17:40;;;;;;;;;;;27.60;47.20;;;;;;5015224;28;88227;-45
2021/08/02 03:20:06;;;;;;;;;;;27.60;47.60;;;;;;5016269;28;87204;-46
2021/08/02 03:22:38;;;;;;;;;;;27.50;47.10;;;;;;5017179;28;87829;-47
2021/08/02 03:25:13;;;;;;;;;;;27.50;47.00;;;;;;5017384;28;86919;-47
2021/08/02 03:27:45;;;;;;;;;;;27.50;47.20;;;;;;5018791;28;87178;-46
2021/08/02 03:30:13;;;;;;;;;;;27.50;47.10;;;;;;5020759;28;87574;-46
2021/08/02 03:32:40;;;;;;;;;;;27.50;47.00;;;;;;5016553;28;88087;-47
2021/08/02 03:35:08;;;;;;;;;;;27.40;47.10;;;;;;5021879;28;88431;-47
2021/08/02 03:37:34;;;;;;;;;;;27.40;47.00;;;;;;5021494;28;88209;-46
2021/08/02 03:40:01;;;;;;;;;;;27.50;47.40;;;;;;5022912;28;87153;-46
2021/08/02 03:42:27;;;;;;;;;;;27.40;47.10;;;;;;5021913;28;87163;-46
2021/08/02 03:44:53;;;;;;;;;;;27.40;47.10;;;;;;5022028;28;87440;-48
2021/08/02 03:47:19;;;;;;;;;;;27.40;47.10;;;;;;5022007;28;87186;-48
2021/08/02 03:49:45;;;;;;;;;;;27.40;47.10;;;;;;5022751;28;88490;-47
2021/08/02 03:52:10;;;;;;;;;;;27.40;47.10;;;;;;5025420;28;88201;-46
2021/08/02 03:54:36;;;;;;;;;;;27.30;47.40;;;;;;5022156;28;87166;-47
2021/08/02 03:57:01;;;;;;;;;;;27.30;47.90;;;;;;5022007;28;89152;-49
2021/08/02 03:59:27;;;;;;;;;;;27.30;47.20;;;;;;5020477;28;87622;-47
2021/08/02 04:01:53;;;;;;;;;;;27.30;47.40;;;;;;5018123;28;88817;-46
2021/08/02 04:04:18;;;;;;;;;;;27.30;47.10;;;;;;5018885;28;87504;-47
2021/08/02 04:06:44;;;;;;;;;;;27.30;47.50;;;;;;5020019;28;87205;-46
2021/08/02 04:09:11;;;;;;;;;;;27.30;47.30;;;;;;5021252;28;87979;-47
2021/08/02 04:11:37;;;;;;;;;;;27.30;47.60;;;;;;5020013;28;89115;-46
2021/08/02 04:14:04;;;;;;;;;;;27.30;47.60;;;;;;5022578;28;86475;-45
2021/08/02 04:16:30;;;;;;;;;;;27.20;47.30;;;;;;5018875;28;87825;-47
2021/08/02 04:18:55;;;;;;;;;;;27.20;47.40;;;;;;5019663;28;87121;-46
2021/08/02 04:21:21;;;;;;;;;;;27.20;47.70;;;;;;5018550;28;88124;-47
2021/08/02 04:23:46;;;;;;;;;;;27.20;47.50;;;;;;5019646;28;88261;-46
2021/08/02 04:26:12;;;;;;;;;;;27.20;47.80;;;;;;5020160;28;87137;-46
2021/08/02 04:28:41;;;;;;;;;;;27.20;47.70;;;;;;5020174;28;88919;-47
2021/08/02 04:31:07;;;;;;;;;;;27.20;47.50;;;;;;5019625;28;88204;-47
2021/08/02 04:33:32;;;;;;;;;;;27.10;47.70;;;;;;5017698;28;87179;-47
2021/08/02 04:35:58;;;;;;;;;;;27.20;47.60;;;;;;5020412;28;87497;-48
2021/08/02 04:38:23;;;;;;;;;;;27.10;47.50;;;;;;5018402;28;86429;-48
2021/08/02 04:40:49;;;;;;;;;;;27.10;47.70;;;;;;5019108;28;87165;-46
2021/08/02 04:43:14;;;;;;;;;;;27.10;47.60;;;;;;5018756;28;89092;-51
2021/08/02 04:45:40;;;;;;;;;;;27.10;47.60;;;;;;5020567;28;88111;-46
2021/08/02 04:48:05;;;;;;;;;;;27.10;47.80;;;;;;5021464;28;88724;-46
2021/08/02 04:50:31;;;;;;;;;;;27.10;47.60;;;;;;5017822;28;88077;-48
2021/08/02 04:52:57;;;;;;;;;;;27.10;47.60;;;;;;5017498;28;87220;-45
2021/08/02 04:55:22;;;;;;;;;;;27.10;47.80;;;;;;5020677;28;88011;-47
2021/08/02 04:57:48;;;;;;;;;;;27.00;47.80;;;;;;5019301;28;87102;-49
2021/08/02 05:00:13;;;;;;;;;;;27.10;47.80;;;;;;5020370;28;88013;-48
2021/08/02 05:02:39;;;;;;;;;;;27.10;47.70;;;;;;5021699;28;87870;-47
2021/08/02 05:05:05;;;;;;;;;;;27.00;47.70;;;;;;5021015;28;87115;-50
2021/08/02 05:07:31;;;;;;;;;;;27.00;47.70;;;;;;5021051;28;87133;-46
2021/08/02 05:09:56;;;;;;;;;;;27.00;48.60;;;;;;5020382;28;88680;-51
2021/08/02 05:12:22;;;;;;;;;;;27.00;47.80;;;;;;5020380;28;88086;-45
2021/08/02 05:14:47;;;;;;;;;;;27.00;48.00;;;;;;5017604;28;88021;-46
2021/08/02 05:17:13;;;;;;;;;;;27.00;47.90;;;;;;5019755;28;88883;-46
2021/08/02 05:19:39;;;;;;;;;;;27.00;48.00;;;;;;5016917;28;89300;-46
2021/08/02 05:22:04;;;;;;;;;;;27.00;48.00;;;;;;5016996;28;88106;-45
2021/08/02 05:24:31;;;;;;;;;;;27.00;47.90;;;;;;5018466;28;87167;-48
2021/08/02 05:26:57;;;;;;;;;;;27.00;48.00;;;;;;5018584;28;88202;-46
2021/08/02 05:29:22;;;;;;;;;;;27.00;48.20;;;;;;5018824;28;87772;-46
2021/08/02 05:31:48;;;;;;;;;;;27.00;48.20;;;;;;5020167;28;87094;-46
2021/08/02 05:34:13;;;;;;;;;;;27.00;48.10;;;;;;5021064;28;88090;-51
2021/08/02 05:36:39;;;;;;;;;;;27.00;48.20;;;;;;5018193;28;87960;-45
2021/08/02 05:39:05;;;;;;;;;;;27.00;48.30;;;;;;5023218;28;88822;-46
2021/08/02 05:41:30;;;;;;;;;;;26.90;48.10;;;;;;5020005;28;89156;-46
2021/08/02 05:43:56;;;;;;;;;;;27.00;48.20;;;;;;5017555;28;88435;-46
2021/08/02 05:46:21;;;;;;;;;;;26.90;48.30;;;;;;5017225;28;87757;-45
2021/08/02 05:48:47;;;;;;;;;;;27.00;48.30;;;;;;5018145;28;88179;-46
2021/08/02 05:51:12;;;;;;;;;;;26.90;48.40;;;;;;5018248;28;86609;-48
2021/08/02 05:53:38;;;;;;;;;;;27.00;48.30;;;;;;5018416;28;87153;-48
2021/08/02 05:56:04;;;;;;;;;;;26.90;48.40;;;;;;5018673;28;87782;-50
2021/08/02 05:58:29;;;;;;;;;;;27.00;48.50;;;;;;5019718;28;88066;-46
2021/08/02 06:00:55;;;;;;;;;;;26.90;48.50;;;;;;5023473;28;90113;-50
2021/08/02 06:03:21;;;;;;;;;;;27.00;48.60;;;;;;5020493;28;87228;-50
2021/08/02 06:05:47;;;;;;;;;;;27.00;48.60;;;;;;5020163;28;87193;-50
2021/08/02 06:08:12;;;;;;;;;;;26.90;48.60;;;;;;5020406;28;88529;-47
2021/08/02 06:10:38;;;;;;;;;;;27.00;48.70;;;;;;5017522;28;87213;-49
2021/08/02 06:13:04;;;;;;;;;;;26.90;48.70;;;;;;5016091;28;87496;-47
2021/08/02 06:15:29;;;;;;;;;;;27.00;48.70;;;;;;5016524;28;87578;-47
2021/08/02 06:17:55;;;;;;;;;;;27.00;48.80;;;;;;5017644;28;87153;-52
2021/08/02 06:20:20;;;;;;;;;;;27.00;48.90;;;;;;5018893;28;87367;-48
2021/08/02 06:22:46;;;;;;;;;;;26.90;48.90;;;;;;5022047;28;89262;-52
2021/08/02 06:25:12;;;;;;;;;;;27.00;48.90;;;;;;5019989;28;89592;-48
2021/08/02 06:27:37;;;;;;;;;;;27.00;48.90;;;;;;5020529;28;88071;-51
2021/08/02 06:30:03;;;;;;;;;;;27.00;48.90;;;;;;5018547;28;88848;-48
2021/08/02 06:32:29;;;;;;;;;;;27.00;48.90;;;;;;5017484;28;87592;-49
2021/08/02 06:34:55;;;;;;;;;;;27.00;49.00;;;;;;5015915;28;88211;-48
2021/08/02 06:37:22;;;;;;;;;;;27.00;49.00;;;;;;5016533;28;87173;-49
2021/08/02 06:39:47;;;;;;;;;;;27.00;49.00;;;;;;5018153;28;88261;-47
2021/08/02 06:42:14;;;;;;;;;;;27.00;49.00;;;;;;5015785;28;88515;-48
2021/08/02 06:44:42;;;;;;;;;;;27.00;49.00;;;;;;5020149;28;88685;-48
2021/08/02 06:47:08;;;;;;;;;;;27.00;49.10;;;;;;5017444;28;88712;-48
2021/08/02 06:49:34;;;;;;;;;;;27.00;49.00;;;;;;5019646;28;87141;-51
2021/08/02 06:51:59;;;;;;;;;;;27.00;49.00;;;;;;5019598;28;88338;-48
2021/08/02 06:54:25;;;;;;;;;;;27.00;49.00;;;;;;5017613;28;88755;-47
2021/08/02 06:56:50;;;;;;;;;;;27.10;49.20;;;;;;5017432;28;88170;-48
2021/08/02 06:59:16;;;;;;;;;;;27.00;49.10;;;;;;5016199;28;87143;-47
2021/08/02 07:01:41;;;;;;;;;;;27.00;49.00;;;;;;5017023;28;87966;-48
2021/08/02 07:04:07;;;;;;;;;;;27.00;48.90;;;;;;5021810;28;86433;-48
2021/08/02 07:06:33;;;;;;;;;;;27.00;49.00;;;;;;5019428;28;87250;-49
2021/08/02 07:08:58;;;;;;;;;;;27.10;49.00;;;;;;5023321;28;87176;-48
2021/08/02 07:11:27;;;;;;;;;;;27.10;48.90;;;;;;5022319;28;88856;-49
2021/08/02 07:13:54;;;;;;;;;;;27.10;48.90;;;;;;5019557;28;87255;-50
2021/08/02 07:16:23;;;;;;;;;;;27.10;48.80;;;;;;5019108;28;87249;-48
2021/08/02 07:18:48;;;;;;;;;;;27.10;48.90;;;;;;5022683;28;87287;-48
2021/08/02 07:21:14;;;;;;;;;;;27.10;48.70;;;;;;5023408;28;88008;-49
2021/08/02 07:23:39;;;;;;;;;;;27.10;48.70;;;;;;5020610;28;88781;-48
2021/08/02 07:26:06;;;;;;;;;;;27.10;48.70;;;;;;5021867;28;87353;-50
2021/08/02 07:28:31;;;;;;;;;;;27.10;48.50;;;;;;5019450;28;86424;-48
2021/08/02 07:30:57;;;;;;;;;;;27.20;48.70;;;;;;5018538;28;87948;-48
2021/08/02 07:33:22;;;;;;;;;;;27.10;48.60;;;;;;5018972;28;87981;-48
2021/08/02 07:35:48;;;;;;;;;;;27.10;48.60;;;;;;5019876;28;88060;-49
2021/08/02 07:38:13;;;;;;;;;;;27.10;48.50;;;;;;5021510;28;89621;-48
2021/08/02 07:40:39;;;;;;;;;;;27.10;48.30;;;;;;5022312;28;89164;-50
2021/08/02 07:43:05;;;;;;;;;;;27.20;49.10;;;;;;5022506;28;87156;-49
2021/08/02 07:45:30;;;;;;;;;;;27.20;48.30;;;;;;5021619;28;87175;-48
2021/08/02 07:47:56;;;;;;;;;;;27.20;48.30;;;;;;5023373;28;88989;-48
2021/08/02 07:50:21;;;;;;;;;;;27.20;48.30;;;;;;5020899;28;87189;-48
2021/08/02 07:52:47;;;;;;;;;;;27.10;48.30;;;;;;5021088;28;88912;-48
2021/08/02 07:55:12;;;;;;;;;;;27.20;48.30;;;;;;5021714;28;87196;-48
2021/08/02 07:57:38;;;;;;;;;;;27.30;48.30;;;;;;5021859;28;87358;-48
2021/08/02 08:00:05;;;;;;;;;;;27.20;48.20;;;;;;5021576;28;88594;-49
2021/08/02 08:02:31;;;;;;;;;;;27.20;48.20;;;;;;5021427;28;87206;-48
2021/08/02 08:04:56;;;;;;;;;;;27.20;48.20;;;;;;5021658;28;87152;-48
2021/08/02 08:07:22;;;;;;;;;;;27.30;48.30;;;;;;5022321;28;87938;-52
2021/08/02 08:09:47;;;;;;;;;;;27.30;48.30;;;;;;5023821;28;87840;-51
2021/08/02 08:12:13;;;;;;;;;;;27.20;48.20;;;;;;5022307;28;88775;-49
2021/08/02 08:14:38;;;;;;;;;;;27.30;48.30;;;;;;5022598;28;87169;-49
2021/08/02 08:17:04;;;;;;;;;;;27.30;48.30;;;;;;5021443;28;88566;-48
2021/08/02 08:19:31;;;;;;;;;;;27.30;48.20;;;;;;5017597;28;88485;-48
2021/08/02 08:21:57;;;;;;;;;;;27.30;48.20;;;;;;5019083;28;87808;-48
2021/08/02 08:24:22;;;;;;;;;;;27.30;48.40;;;;;;5017348;28;88104;-48
2021/08/02 08:26:48;;;;;;;;;;;27.30;48.30;;;;;;5018498;28;88218;-48
2021/08/02 08:29:13;;;;;;;;;;;27.30;48.40;;;;;;5019078;28;87148;-49
2021/08/02 08:31:39;;;;;;;;;;;27.30;48.70;;;;;;5021774;28;87588;-48
2021/08/02 08:34:04;;;;;;;;;;;27.30;48.30;;;;;;5020113;28;87119;-51
2021/08/02 08:36:30;;;;;;;;;;;27.30;48.60;;;;;;5021191;28;87178;-48
2021/08/02 08:38:56;;;;;;;;;;;27.40;48.50;;;;;;5020075;28;89333;-48
2021/08/02 08:41:21;;;;;;;;;;;27.40;48.70;;;;;;5022207;28;86379;-49
2021/08/02 08:43:51;;;;;;;;;;;27.40;48.80;;;;;;5021629;28;88668;-48
2021/08/02 08:46:18;;;;;;;;;;;27.40;48.80;;;;;;5018140;28;89482;-48
2021/08/02 08:48:43;;;;;;;;;;;27.40;48.90;;;;;;5017643;28;88084;-48
2021/08/02 08:51:11;;;;;;;;;;;27.40;48.90;;;;;;5019530;28;88385;-48
2021/08/02 08:53:37;;;;;;;;;;;27.50;49.00;;;;;;5020571;28;87638;-49
2021/08/02 08:56:03;;;;;;;;;;;27.50;49.00;;;;;;5018013;28;87243;-48
2021/08/02 08:58:28;;;;;;;;;;;27.50;49.30;;;;;;5017752;28;87158;-49
2021/08/02 09:01:04;;;;;;;;;;;27.50;49.20;;;;;;5018447;28;87171;-51
2021/08/02 09:03:29;;;;;;;;;;;27.50;49.10;;;;;;5018868;28;89309;-48
2021/08/02 09:06:06;;;;;;;;;;;27.50;49.50;;;;;;5020166;28;88542;-49
2021/08/02 09:08:41;;;;;;;;;;;27.50;49.20;;;;;;5019661;28;87155;-48
2021/08/02 09:11:07;;;;;;;;;;;27.60;49.30;;;;;;5020178;28;87548;-48
2021/08/02 09:13:34;;;;;;;;;;;27.60;49.40;;;;;;5022679;28;88780;-50
2021/08/02 09:16:24;;;;;;;;;;;27.60;49.40;;;;;;5020365;28;89893;-50
2021/08/02 09:19:03;;;;;;;;;;;27.60;49.50;;;;;;5017808;28;88700;-48
2021/08/02 09:21:45;;;;;;;;;;;27.60;49.40;;;;;;5019607;28;87172;-48
2021/08/02 09:24:11;;;;;;;;;;;27.70;49.40;;;;;;5017092;28;87150;-48
2021/08/02 09:26:37;;;;;;;;;;;27.70;49.20;;;;;;5017930;28;88813;-51
2021/08/02 09:29:04;;;;;;;;;;;27.70;49.30;;;;;;5017747;28;87162;-49
2021/08/02 09:31:33;;;;;;;;;;;27.70;49.20;;;;;;5017464;28;87522;-49
2021/08/02 09:34:03;;;;;;;;;;;27.70;49.00;;;;;;5018881;28;87686;-48
2021/08/02 09:36:46;;;;;;;;;;;27.70;49.40;;;;;;5024087;28;87193;-52
2021/08/02 09:39:15;;;;;;;;;;;27.70;49.40;;;;;;5016704;28;89354;-49
2021/08/02 09:41:41;;;;;;;;;;;27.70;49.00;;;;;;5020528;28;87157;-49
2021/08/02 09:44:16;;;;;;;;;;;27.70;49.10;;;;;;5020596;28;88812;-50
2021/08/02 09:46:51;;;;;;;;;;;27.80;48.60;;;;;;5018165;28;88527;-48
2021/08/02 09:49:16;;;;;;;;;;;27.80;47.70;;;;;;5017934;28;87244;-58
2021/08/02 09:51:42;;;;;;;;;;;27.80;48.80;;;;;;5005450;28;87154;-52
2021/08/02 09:54:08;;;;;;;;;;;28.50;40.90;;;;;;4996100;28;88112;-57
2021/08/02 09:56:35;;;;;;;;;;;29.00;37.40;;;;;;4999082;28;87377;-58
2021/08/02 09:59:00;;;;;;;;;;;29.30;36.30;;;;;;5001992;28;87164;-56
2021/08/02 10:01:26;;;;;;;;;;;29.40;36.10;;;;;;4998610;28;87156;-57
2021/08/02 10:03:52;;;;;;;;;;;29.60;35.70;;;;;;4995870;28;89030;-57
2021/08/02 10:06:18;;;;;;;;;;;29.60;34.40;;;;;;4995989;28;88943;-54
2021/08/02 10:08:44;;;;;;;;;;;29.70;34.80;;;;;;4997145;28;88772;-58
2021/08/02 10:11:10;;;;;;;;;;;29.90;33.70;;;;;;5000444;28;88899;-59
2021/08/02 10:13:37;;;;;;;;;;;30.00;33.90;;;;;;4999875;28;88235;-57
2021/08/02 10:16:04;;;;;;;;;;;30.00;33.70;;;;;;4996993;28;87189;-57
2021/08/02 10:18:31;;;;;;;;;;;30.10;32.90;;;;;;5000540;28;88716;-56
2021/08/02 10:21:03;;;;;;;;;;;30.20;32.90;;;;;;5003946;28;86508;-52
2021/08/02 10:23:29;;;;;;;;;;;30.20;32.20;;;;;;4997100;28;87107;-50
2021/08/02 10:25:54;;;;;;;;;;;30.10;31.80;;;;;;4995974;28;87188;-50
2021/08/02 10:28:20;;;;;;;;;;;30.10;31.10;;;;;;4996046;28;89814;-51
2021/08/02 10:30:47;;;;;;;;;;;30.10;32.00;;;;;;5000549;28;90042;-49
2021/08/02 10:33:13;;;;;;;;;;;30.20;31.60;;;;;;4998029;28;89435;-52
2021/08/02 10:35:42;;;;;;;;;;;30.40;31.40;;;;;;4997866;28;87273;-56
2021/08/02 10:38:11;;;;;;;;;;;30.40;31.80;;;;;;4998339;28;88874;-53
2021/08/02 10:40:42;;;;;;;;;;;30.40;31.70;;;;;;5000135;28;88251;-52
2021/08/02 10:43:08;;;;;;;;;;;30.40;29.90;;;;;;5004108;28;87155;-52
2021/08/02 10:45:34;;;;;;;;;;;30.70;30.00;;;;;;5002229;28;89333;-53
2021/08/02 10:48:00;;;;;;;;;;;30.70;30.50;;;;;;5003069;28;87186;-57
2021/08/02 10:50:27;;;;;;;;;;;30.50;30.30;;;;;;5002473;28;87863;-50
2021/08/02 10:52:54;;;;;;;;;;;30.60;30.00;;;;;;4998020;28;88659;-49
2021/08/02 10:55:20;;;;;;;;;;;30.70;30.30;;;;;;5001771;28;88885;-50
2021/08/02 10:57:56;;;;;;;;;;;30.70;30.30;;;;;;5003266;28;88812;-60
2021/08/02 11:00:21;;;;;;;;;;;30.80;30.00;;;;;;5001822;28;88750;-59
2021/08/02 11:02:51;;;;;;;;;;;30.70;31.00;;;;;;5001415;28;87132;-60
2021/08/02 11:05:17;;;;;;;;;;;30.60;29.70;;;;;;5005454;28;88792;-53
2021/08/02 11:07:43;;;;;;;;;;;30.70;29.40;;;;;;5003687;28;87270;-51
2021/08/02 11:10:09;;;;;;;;;;;30.80;30.10;;;;;;5003307;28;86633;-55
2021/08/02 11:12:41;;;;;;;;;;;30.90;29.80;;;;;;5001866;28;89075;-54
2021/08/02 11:15:07;;;;;;;;;;;30.90;29.30;;;;;;4998981;28;87283;-50
2021/08/02 11:17:32;;;;;;;;;;;30.80;29.70;;;;;;5000951;28;89742;-49
2021/08/02 11:19:59;;;;;;;;;;;30.80;29.30;;;;;;5002465;28;88753;-57
2021/08/02 11:22:25;;;;;;;;;;;30.90;29.40;;;;;;5002343;28;87213;-55
2021/08/02 11:24:54;;;;;;;;;;;30.80;29.50;;;;;;5004083;28;87498;-48
2021/08/02 11:27:20;;;;;;;;;;;30.80;29.30;;;;;;5002383;28;87125;-58
2021/08/02 11:29:48;;;;;;;;;;;30.90;28.80;;;;;;5000874;28;89013;-58
2021/08/02 11:32:13;;;;;;;;;;;31.00;29.10;;;;;;4999016;28;87991;-58
2021/08/02 11:34:41;;;;;;;;;;;31.00;28.80;;;;;;5003833;28;86480;-52
2021/08/02 11:37:14;;;;;;;;;;;31.10;29.60;;;;;;5000181;28;87152;-55
2021/08/02 11:39:42;;;;;;;;;;;31.00;28.80;;;;;;5001540;28;89127;-59
2021/08/02 11:42:14;;;;;;;;;;;31.10;28.70;;;;;;4999656;28;88097;-58
2021/08/02 11:44:43;;;;;;;;;;;31.00;28.30;;;;;;5002119;28;88458;-59
2021/08/02 11:47:10;;;;;;;;;;;31.20;28.60;;;;;;5001179;28;88994;-59
2021/08/02 11:49:38;;;;;;;;;;;31.20;28.80;;;;;;5002734;28;87150;-60
2021/08/02 11:52:04;;;;;;;;;;;31.30;29.00;;;;;;4995493;28;89873;-59
2021/08/02 11:54:30;;;;;;;;;;;31.20;29.00;;;;;;4998634;28;87203;-57
2021/08/02 11:56:56;;;;;;;;;;;31.30;28.30;;;;;;4999236;28;89247;-59
2021/08/02 11:59:22;;;;;;;;;;;31.30;29.40;;;;;;4999739;28;87374;-56
2021/08/02 12:01:48;;;;;;;;;;;31.30;29.00;;;;;;4998027;28;87140;-58
2021/08/02 12:04:15;;;;;;;;;;;31.40;29.30;;;;;;5000580;28;87934;-57
2021/08/02 12:06:48;;;;;;;;;;;31.40;28.90;;;;;;5001026;28;88904;-54
2021/08/02 12:09:14;;;;;;;;;;;31.50;29.20;;;;;;5002665;28;87263;-58
2021/08/02 12:11:41;;;;;;;;;;;31.70;28.70;;;;;;4999655;28;88933;-56
2021/08/02 12:14:06;;;;;;;;;;;31.80;28.50;;;;;;4998654;28;87155;-59
2021/08/02 12:16:33;;;;;;;;;;;31.80;28.70;;;;;;4997991;28;87248;-58
2021/08/02 12:19:19;;;;;;;;;;;31.90;29.20;;;;;;5001516;28;89172;-57
2021/08/02 12:21:53;;;;;;;;;;;31.80;29.20;;;;;;5001946;28;87188;-57
2021/08/02 12:24:18;;;;;;;;;;;31.90;29.20;;;;;;4998500;28;86967;-53
2021/08/02 12:26:49;;;;;;;;;;;31.90;29.60;;;;;;4996429;28;88210;-55
2021/08/02 12:29:25;;;;;;;;;;;32.00;29.50;;;;;;4998689;28;88321;-58
2021/08/02 12:32:01;;;;;;;;;;;32.00;29.30;;;;;;5003008;28;89211;-59
2021/08/02 12:34:27;;;;;;;;;;;32.00;29.10;;;;;;5002113;28;87175;-60
2021/08/02 12:36:53;;;;;;;;;;;32.00;29.30;;;;;;5001222;28;87572;-59
2021/08/02 12:39:19;;;;;;;;;;;31.90;28.40;;;;;;4998775;28;88618;-59
2021/08/02 12:41:45;;;;;;;;;;;32.00;28.80;;;;;;4999071;28;87143;-59
2021/08/02 12:44:10;;;;;;;;;;;32.10;28.70;;;;;;4998161;28;87742;-59
2021/08/02 12:46:36;;;;;;;;;;;32.10;28.70;;;;;;4997075;28;87760;-58
2021/08/02 12:49:01;;;;;;;;;;;32.10;29.00;;;;;;5000007;28;87904;-60
2021/08/02 12:51:27;;;;;;;;;;;32.20;28.70;;;;;;5001353;28;88746;-61
2021/08/02 12:53:52;;;;;;;;;;;32.20;29.30;;;;;;5004142;28;89193;-53
2021/08/02 12:56:18;;;;;;;;;;;32.30;29.40;;;;;;5000532;28;88104;-54
2021/08/02 12:58:43;;;;;;;;;;;32.20;29.40;;;;;;4999867;28;88398;-54
2021/08/02 13:01:10;;;;;;;;;;;32.20;29.30;;;;;;4999242;28;87272;-59
2021/08/02 13:03:38;;;;;;;;;;;32.30;29.50;;;;;;4998023;28;89464;-58
2021/08/02 13:06:05;;;;;;;;;;;32.30;29.90;;;;;;4998980;28;89115;-59
2021/08/02 13:08:31;;;;;;;;;;;32.40;29.80;;;;;;4999144;28;87138;-54
2021/08/02 13:10:57;;;;;;;;;;;32.30;29.00;;;;;;4998287;28;87737;-54
2021/08/02 13:13:22;;;;;;;;;;;32.30;28.60;;;;;;4998108;28;86909;-56
2021/08/02 13:15:48;;;;;;;;;;;32.40;29.10;;;;;;5000931;28;87288;-60
2021/08/02 13:18:14;;;;;;;;;;;32.40;28.70;;;;;;4996770;28;88023;-59
2021/08/02 13:20:39;;;;;;;;;;;32.50;28.90;;;;;;4997415;28;89799;-56
2021/08/02 13:23:21;;;;;;;;;;;32.50;28.50;;;;;;4996661;28;87921;-55
2021/08/02 13:28:30;;;;;;;;;;;32.60;28.10;;;;;;4997083;28;87119;-54
2021/08/02 13:30:56;;;;;;;;;;;32.60;27.50;;;;;;4996091;28;87626;-51
2021/08/02 13:33:21;;;;;;;;;;;32.60;28.60;;;;;;4998025;28;88885;-53
2021/08/02 13:35:47;;;;;;;;;;;32.40;28.10;;;;;;5004557;28;87194;-51
2021/08/02 13:38:12;;;;;;;;;;;32.40;28.50;;;;;;4999912;28;87612;-53
2021/08/02 13:40:38;;;;;;;;;;;32.40;27.80;;;;;;4996352;28;88350;-54
2021/08/02 13:43:04;;;;;;;;;;;32.40;28.30;;;;;;4998308;28;89377;-49
2021/08/02 13:45:30;;;;;;;;;;;32.50;28.00;;;;;;4999641;28;88656;-52
2021/08/02 13:47:56;;;;;;;;;;;32.50;28.40;;;;;;4999686;28;87215;-54
2021/08/02 13:50:21;;;;;;;;;;;32.50;28.50;;;;;;4998447;28;87551;-55
2021/08/02 13:52:47;;;;;;;;;;;32.50;28.30;;;;;;4997842;28;88565;-50
2021/08/02 13:55:14;;;;;;;;;;;32.60;28.90;;;;;;4996511;28;87224;-52
2021/08/02 13:57:40;;;;;;;;;;;32.60;28.20;;;;;;4999655;28;87180;-50
2021/08/02 14:00:06;;;;;;;;;;;32.60;28.70;;;;;;4999031;28;87621;-53
2021/08/02 14:02:31;;;;;;;;;;;32.50;28.10;;;;;;5001217;28;86966;-51
2021/08/02 14:04:57;;;;;;;;;;;32.50;28.60;;;;;;5000715;28;88129;-54
2021/08/02 14:07:23;;;;;;;;;;;32.50;28.50;;;;;;5000530;28;87195;-51
2021/08/02 14:09:49;;;;;;;;;;;32.50;28.30;;;;;;4998388;28;89114;-56
2021/08/02 14:12:15;;;;;;;;;;;32.50;28.30;;;;;;4999152;28;87200;-55
2021/08/02 14:14:43;;;;;;;;;;;32.50;28.50;;;;;;4996115;28;87239;-53
2021/08/02 14:17:14;;;;;;;;;;;32.50;28.60;;;;;;5000300;28;89347;-55
2021/08/02 14:19:39;;;;;;;;;;;32.50;28.30;;;;;;5001171;28;88062;-51